createdAt,value
2023-02-19T06:32:23.359Z,995.71
2023-02-19T06:33:23.823Z,995.77
2023-02-19T06:34:25.474Z,995.68
2023-02-19T06:35:30.790Z,995.75
2023-02-19T06:36:25.728Z,995.73
2023-02-19T06:37:25.039Z,995.76
2023-02-19T06:38:26.074Z,995.76
2023-02-19T06:39:24.793Z,995.71
2023-02-19T06:40:24.642Z,995.69
2023-02-19T06:41:25.036Z,995.78
2023-02-19T06:42:27.178Z,995.77
2023-02-19T06:43:25.481Z,995.78
2023-02-19T06:44:26.730Z,995.83
2023-02-19T06:45:24.436Z,995.84
2023-02-19T06:46:29.819Z,995.81
2023-02-19T06:47:25.617Z,995.81
2023-02-19T06:48:25.760Z,995.84
2023-02-19T06:49:27.113Z,995.86
2023-02-19T06:50:27.038Z,995.88
2023-02-19T06:51:32.228Z,995.86
2023-02-19T06:52:25.265Z,995.87
2023-02-19T06:53:24.810Z,995.86
2023-02-19T06:54:25.873Z,995.93
2023-02-19T06:55:24.863Z,996.04
2023-02-19T06:56:24.144Z,996.09
2023-02-19T06:57:31.973Z,995.96
2023-02-19T06:58:27.596Z,996.05
2023-02-19T06:59:25.706Z,996.03
2023-02-19T07:00:24.252Z,996.05
2023-02-19T07:01:25.401Z,996.03
2023-02-19T07:02:24.305Z,996.09
2023-02-19T07:03:24.133Z,996.06
2023-02-19T07:04:24.109Z,996.09
2023-02-19T07:05:24.126Z,996.09
2023-02-19T07:06:25.287Z,996.14
2023-02-19T07:07:24.752Z,996.15
2023-02-19T07:08:24.035Z,996.18
2023-02-19T07:09:24.125Z,996.17
2023-02-19T07:10:24.126Z,996.20
2023-02-19T07:11:23.996Z,996.21
2023-02-19T07:12:25.822Z,996.21
2023-02-19T07:13:23.954Z,996.19
2023-02-19T07:14:35.465Z,996.27
2023-02-19T07:15:33.948Z,996.25
2023-02-19T07:16:35.187Z,996.24
2023-02-19T07:17:28.212Z,996.25
2023-02-19T07:20:33.863Z,996.36
2023-02-19T07:21:34.065Z,996.29
2023-02-19T07:22:33.859Z,996.25
2023-02-19T07:23:33.992Z,996.26
2023-02-19T07:24:45.175Z,996.33
2023-02-19T07:25:34.923Z,996.26
2023-02-19T07:26:36.265Z,996.36
2023-02-19T07:27:34.423Z,996.37
2023-02-19T07:28:48.142Z,996.39
2023-02-19T07:29:42.777Z,996.38
2023-02-19T07:31:04.489Z,996.42
2023-02-19T07:31:48.925Z,996.38
2023-02-19T07:33:34.439Z,996.38
2023-02-19T07:34:11.859Z,996.46
2023-02-19T07:34:50.956Z,996.52
2023-02-19T07:35:41.980Z,996.47
2023-02-19T07:36:41.026Z,996.53
2023-02-19T07:37:41.916Z,996.61
2023-02-19T07:38:41.064Z,996.64
2023-02-19T07:39:41.045Z,996.56
2023-02-19T07:40:41.996Z,996.64
2023-02-19T07:41:41.875Z,996.62
2023-02-19T07:42:41.360Z,996.75
2023-02-19T07:43:41.574Z,996.71
2023-02-19T07:44:41.113Z,996.75
2023-02-19T07:45:41.101Z,996.75
2023-02-19T07:46:41.655Z,996.73
2023-02-19T07:47:42.029Z,996.75
2023-02-19T07:48:41.741Z,996.73
2023-02-19T07:49:40.905Z,996.78
2023-02-19T07:50:42.833Z,996.74
2023-02-19T07:51:40.840Z,996.75
2023-02-19T07:52:40.836Z,996.78
2023-02-19T07:53:40.824Z,996.76
2023-02-19T07:54:41.437Z,996.84
2023-02-19T07:55:40.904Z,996.96
2023-02-19T07:56:40.817Z,997.06
2023-02-19T07:57:40.720Z,997.02
2023-02-19T07:58:41.554Z,997.01
2023-02-19T07:59:40.781Z,997.12
2023-02-19T08:00:40.840Z,997.07
2023-02-19T08:01:40.707Z,997.14
2023-02-19T08:02:41.300Z,997.12
2023-02-19T08:03:40.742Z,997.17
2023-02-19T08:04:40.801Z,997.19
2023-02-19T08:05:40.707Z,997.19
2023-02-19T08:06:40.697Z,997.28
2023-02-19T08:07:40.642Z,997.29
2023-02-19T08:08:40.621Z,997.35
2023-02-19T08:09:40.900Z,997.31
2023-02-19T08:10:40.798Z,997.27
2023-02-19T08:11:41.220Z,997.34
2023-02-19T08:12:40.624Z,997.30
2023-02-19T08:13:40.932Z,997.34
2023-02-19T08:14:40.702Z,997.40
2023-02-19T08:15:42.582Z,997.48
2023-02-19T08:16:43.214Z,997.37
2023-02-19T08:17:40.586Z,997.43
2023-02-19T08:18:47.848Z,997.46
2023-02-19T08:19:40.606Z,997.52
2023-02-19T08:20:41.113Z,997.47
2023-02-19T08:21:44.631Z,997.54
2023-02-19T08:23:01.979Z,997.47
2023-02-19T08:23:45.876Z,997.48
2023-02-19T08:28:55.568Z,997.61
2023-02-19T08:29:57.686Z,997.59
2023-02-19T08:31:34.645Z,997.52
2023-02-19T08:31:58.913Z,997.58
2023-02-19T08:33:05.158Z,997.48
2023-02-19T08:34:23.678Z,997.59
2023-02-19T08:37:08.597Z,997.59
2023-02-19T08:38:08.597Z,997.70
2023-02-19T08:39:08.553Z,997.67
2023-02-19T08:40:08.626Z,997.65
2023-02-19T08:41:08.753Z,997.67
2023-02-19T08:42:43.556Z,997.70
2023-02-19T08:43:10.157Z,997.60
2023-02-19T08:44:09.867Z,997.68
2023-02-19T08:45:09.640Z,997.69
2023-02-19T08:46:09.868Z,997.74
2023-02-19T08:47:09.628Z,997.70
2023-02-19T08:48:09.674Z,997.73
2023-02-19T08:49:09.600Z,997.68
2023-02-19T08:50:09.642Z,997.71
2023-02-19T08:51:09.821Z,997.72
2023-02-19T08:52:09.633Z,997.65
2023-02-19T08:53:09.613Z,997.62
2023-02-19T08:56:24.071Z,997.79
2023-02-19T08:57:24.402Z,997.86
2023-02-19T08:58:24.053Z,997.85
2023-02-19T08:59:25.163Z,997.87
2023-02-19T09:00:25.090Z,997.84
2023-02-19T09:01:25.315Z,997.85
2023-02-19T09:02:25.170Z,997.86
2023-02-19T09:03:25.090Z,997.92
2023-02-19T09:04:25.179Z,997.90
2023-02-19T09:05:25.144Z,997.91
2023-02-19T09:06:25.027Z,997.87
2023-02-19T09:07:25.125Z,997.96
2023-02-19T09:08:25.112Z,998.00
2023-02-19T09:09:25.236Z,997.92
2023-02-19T09:10:25.242Z,998.02
2023-02-19T09:11:25.622Z,997.98
2023-02-19T09:12:25.065Z,998.07
2023-02-19T09:13:24.985Z,998.06
2023-02-19T09:14:24.988Z,998.13
2023-02-19T09:15:58.983Z,998.03
2023-02-19T09:17:01.270Z,998.01
2023-02-19T09:17:25.551Z,998.10
2023-02-19T09:18:24.952Z,998.05
2023-02-19T09:19:57.469Z,998.09
2023-02-19T09:20:25.737Z,998.11
2023-02-19T09:21:25.326Z,998.11
2023-02-19T09:22:57.349Z,998.14
